Columbia — WDD6400 — position and weather

sailwx.info

Track history (hours):
 
Tides and Currents Weather Stations Pressure Air Temp Water Temp Dewpoint Dewpoint Depression Visibility Wind Speed Wind Dir Waves Ship Positions

Columbia

Owner: OSG Ship Management Inc., Tampa, FL. More information available from US FCC via Universal Licensing System and Coast Guard Vessel Documentation Center.

Last reported at 2015-Jan-20 18:12 UTC. Time now 2015-Jan-27 08:24 UTC.
Position N 27°45' W 082°31'.

Length 194 m; draft 9.7 m.

Type: Towing. MMSI: 367172440.

Date/timePositionNaut miles runAvg speedWind from/ knotsBaromVisibWave heightAir tempDewpointWater temp
2015-Jan-20 18:12N 27°45' W 082°31'6 8.6
2015-Jan-20 17:34N 27°49' W 082°27'8 7.3
2015-Jan-20 16:31N 27°56' W 082°27'1 0.6
2015-Jan-20 15:33N 27°56' W 082°27'1 1.1
2015-Jan-20 14:31N 27°55' W 082°26'0 0.0
2015-Jan-20 13:31N 27°55' W 082°26'0 0.0
2015-Jan-20 12:31N 27°55' W 082°26'0 0.0
2015-Jan-20 11:33N 27°55' W 082°26'0 0.0
2015-Jan-20 10:33N 27°55' W 082°26'0 0.0
2015-Jan-20 09:33N 27°55' W 082°26'0 0.0
2015-Jan-20 08:33N 27°55' W 082°26'0 0.0
2015-Jan-20 07:33N 27°55' W 082°26'0 0.0
2015-Jan-20 06:33N 27°55' W 082°26'0 0.0
2015-Jan-20 05:33N 27°55' W 082°26'0 0.0
2015-Jan-20 04:32N 27°55' W 082°26'0 0.0
2015-Jan-20 03:31N 27°55' W 082°26'0 0.0
2015-Jan-20 02:32N 27°55' W 082°26'0 0.0
2015-Jan-20 01:33N 27°55' W 082°26'0 0.0
2015-Jan-20 00:34N 27°55' W 082°26'0 0.0
2015-Jan-19 23:33N 27°55' W 082°26'0 0.0
2015-Jan-19 22:33N 27°55' W 082°26'0 0.0
2015-Jan-19 21:33N 27°55' W 082°26'0 0.0
2015-Jan-19 20:33N 27°55' W 082°26'0 0.0
2015-Jan-19 19:33N 27°55' W 082°26'0 0.0
2015-Jan-19 18:33N 27°55' W 082°26'0 0.0
2015-Jan-19 17:33N 27°55' W 082°26'0 0.0
2015-Jan-19 16:33N 27°55' W 082°26'1 1.2
2015-Jan-19 15:33N 27°56' W 082°27'1 1.5
2015-Jan-19 14:33N 27°55' W 082°26'7 7.2
2015-Jan-19 13:33N 27°48' W 082°29'8 8.0
2015-Jan-19 12:33N 27°41' W 082°34'8 7.9
2015-Jan-19 11:32N 27°37' W 082°42'7 7.5
2015-Jan-19 10:33N 27°36' W 082°50'  
2015-Jan-11 16:24N 27°46' W 082°31'8 8.9
2015-Jan-11 15:33N 27°52' W 082°27'3 3.3
2015-Jan-11 14:33N 27°55' W 082°27'0 0.0
2015-Jan-11 13:33N 27°55' W 082°27'0 0.0
2015-Jan-11 12:33N 27°55' W 082°27'0 0.0
2015-Jan-11 11:33N 27°55' W 082°27'0 0.0
2015-Jan-11 10:33N 27°55' W 082°27'0 0.0
2015-Jan-11 09:33N 27°55' W 082°27'0 0.0
2015-Jan-11 08:33N 27°55' W 082°27'0 0.0
2015-Jan-11 07:33N 27°55' W 082°27'1 0.8
2015-Jan-11 06:33N 27°56' W 082°27'1 1.2
2015-Jan-11 05:33N 27°55' W 082°26'0 0.0
2015-Jan-11 04:33N 27°55' W 082°26'0 0.0
2015-Jan-11 03:33N 27°55' W 082°26'0 0.0
2015-Jan-11 02:33N 27°55' W 082°26'0 0.0
2015-Jan-11 01:33N 27°55' W 082°26'0 0.0
2015-Jan-11 00:33N 27°55' W 082°26'0 0.0
2015-Jan-10 23:33N 27°55' W 082°26'0 0.0
2015-Jan-10 22:33N 27°55' W 082°26'0 0.0
2015-Jan-10 21:33N 27°55' W 082°26'0 0.0
2015-Jan-10 20:33N 27°55' W 082°26'0 0.0
2015-Jan-10 19:33N 27°55' W 082°26'0 0.0
2015-Jan-10 18:33N 27°55' W 082°26'  
Track history (hours):
 
Tides and Currents Weather Stations Pressure Air Temp Water Temp Dewpoint Dewpoint Depression Visibility Wind Speed Wind Dir Waves Ship Positions

Columbia

Owner: OSG Ship Management Inc., Tampa, FL. More information available from US FCC via Universal Licensing System and Coast Guard Vessel Documentation Center.

Last reported at 2015-Jan-20 18:12 UTC. Time now 2015-Jan-27 08:24 UTC.
Position N 27°45' W 082°31'.

Length 194 m; draft 9.7 m.

Type: Towing. MMSI: 367172440.

Date/timePositionNaut miles runAvg speedWind from/ knotsBaromVisibWave heightAir tempDewpointWater temp
2015-Jan-20 18:12N 27°45' W 082°31'6 8.6
2015-Jan-20 17:34N 27°49' W 082°27'8 7.3
2015-Jan-20 16:31N 27°56' W 082°27'1 0.6
2015-Jan-20 15:33N 27°56' W 082°27'1 1.1
2015-Jan-20 14:31N 27°55' W 082°26'0 0.0
2015-Jan-20 13:31N 27°55' W 082°26'0 0.0
2015-Jan-20 12:31N 27°55' W 082°26'0 0.0
2015-Jan-20 11:33N 27°55' W 082°26'0 0.0
2015-Jan-20 10:33N 27°55' W 082°26'0 0.0
2015-Jan-20 09:33N 27°55' W 082°26'0 0.0
2015-Jan-20 08:33N 27°55' W 082°26'0 0.0
2015-Jan-20 07:33N 27°55' W 082°26'0 0.0
2015-Jan-20 06:33N 27°55' W 082°26'0 0.0
2015-Jan-20 05:33N 27°55' W 082°26'0 0.0
2015-Jan-20 04:32N 27°55' W 082°26'0 0.0
2015-Jan-20 03:31N 27°55' W 082°26'0 0.0
2015-Jan-20 02:32N 27°55' W 082°26'0 0.0
2015-Jan-20 01:33N 27°55' W 082°26'0 0.0
2015-Jan-20 00:34N 27°55' W 082°26'0 0.0
2015-Jan-19 23:33N 27°55' W 082°26'0 0.0
2015-Jan-19 22:33N 27°55' W 082°26'0 0.0
2015-Jan-19 21:33N 27°55' W 082°26'0 0.0
2015-Jan-19 20:33N 27°55' W 082°26'0 0.0
2015-Jan-19 19:33N 27°55' W 082°26'0 0.0
2015-Jan-19 18:33N 27°55' W 082°26'0 0.0
2015-Jan-19 17:33N 27°55' W 082°26'0 0.0
2015-Jan-19 16:33N 27°55' W 082°26'1 1.2
2015-Jan-19 15:33N 27°56' W 082°27'1 1.5
2015-Jan-19 14:33N 27°55' W 082°26'7 7.2
2015-Jan-19 13:33N 27°48' W 082°29'8 8.0
2015-Jan-19 12:33N 27°41' W 082°34'8 7.9
2015-Jan-19 11:32N 27°37' W 082°42'7 7.5
2015-Jan-19 10:33N 27°36' W 082°50'  
2015-Jan-11 16:24N 27°46' W 082°31'8 8.9
2015-Jan-11 15:33N 27°52' W 082°27'3 3.3
2015-Jan-11 14:33N 27°55' W 082°27'0 0.0
2015-Jan-11 13:33N 27°55' W 082°27'0 0.0
2015-Jan-11 12:33N 27°55' W 082°27'0 0.0
2015-Jan-11 11:33N 27°55' W 082°27'0 0.0
2015-Jan-11 10:33N 27°55' W 082°27'0 0.0
2015-Jan-11 09:33N 27°55' W 082°27'0 0.0
2015-Jan-11 08:33N 27°55' W 082°27'0 0.0
2015-Jan-11 07:33N 27°55' W 082°27'1 0.8
2015-Jan-11 06:33N 27°56' W 082°27'1 1.2
2015-Jan-11 05:33N 27°55' W 082°26'0 0.0
2015-Jan-11 04:33N 27°55' W 082°26'0 0.0
2015-Jan-11 03:33N 27°55' W 082°26'0 0.0
2015-Jan-11 02:33N 27°55' W 082°26'0 0.0
2015-Jan-11 01:33N 27°55' W 082°26'0 0.0
2015-Jan-11 00:33N 27°55' W 082°26'0 0.0
2015-Jan-10 23:33N 27°55' W 082°26'0 0.0
2015-Jan-10 22:33N 27°55' W 082°26'0 0.0
2015-Jan-10 21:33N 27°55' W 082°26'0 0.0
2015-Jan-10 20:33N 27°55' W 082°26'0 0.0
2015-Jan-10 19:33N 27°55' W 082°26'0 0.0
2015-Jan-10 18:33N 27°55' W 082°26'  

Dump ship's entire track history